Murree Weather



Murree's Current Weather

Temprature 12.91o clear sky

clear sky

Rain: 0 %

Min Temprature12.91o
Max Temprature12.91o
Humidity78
Wind Speed2.35 m/h
Sun Rise05:56:56
Sun Set17:58:49
Current Time: 26-Sep-2022 07:03:59
Lat/Lon: 33.9073, 73.393




Murree's Geo Location



Murree's Weather Forecast

Time Overall Temp Min Temp Max Temp Humidity Wind Speed Rain
26-Sep-2022 (Mon)
08:00:00 clear sky 12.910 12.910 14.180 68 1.2 m/h 0 %
11:00:00 clear sky 14.570 14.570 17.890 64 2.14 m/h 0 %
14:00:00 clear sky 17.050 17.050 19.120 60 2.34 m/h 0 %
17:00:00 clear sky 17.390 17.390 17.390 70 1.53 m/h 0 %
20:00:00 clear sky 13.150 13.150 13.150 80 1.55 m/h 0 %
23:00:00 clear sky 12.390 12.390 12.390 80 2.1 m/h 0 %
27-Sep-2022 (Tue)
02:00:00 clear sky 11.780 11.780 11.780 79 1.93 m/h 0 %
05:00:00 clear sky 11.320 11.320 11.320 78 1.88 m/h 0 %
08:00:00 clear sky 15.300 15.300 15.300 66 0.8 m/h 0 %
11:00:00 clear sky 18.600 18.600 18.600 58 2.34 m/h 0 %
14:00:00 clear sky 19.740 19.740 19.740 56 2.7 m/h 0 %
17:00:00 few clouds 17.620 17.620 17.620 70 1.45 m/h 0 %
20:00:00 few clouds 13.820 13.820 13.820 78 1.2 m/h 0 %
23:00:00 clear sky 12.830 12.830 12.830 79 2.09 m/h 0 %
28-Sep-2022 (Wed)
02:00:00 clear sky 12.040 12.040 12.040 80 2.45 m/h 0 %
05:00:00 clear sky 11.690 11.690 11.690 75 2.3 m/h 0 %
08:00:00 clear sky 15.510 15.510 15.510 65 0.96 m/h 0 %
11:00:00 light rain 18.960 18.960 18.960 57 2.05 m/h 11 %
14:00:00 light rain 20.080 20.080 20.080 51 2.33 m/h 25 %
17:00:00 clear sky 18.350 18.350 18.350 63 1.58 m/h 0 %
20:00:00 few clouds 13.870 13.870 13.870 72 1.89 m/h 0 %
23:00:00 few clouds 12.530 12.530 12.530 73 2.84 m/h 0 %
29-Sep-2022 (Thu)
02:00:00 clear sky 11.700 11.700 11.700 70 3.12 m/h 0 %
05:00:00 light rain 11.210 11.210 11.210 69 3 m/h 33 %
08:00:00 light rain 14.770 14.770 14.770 62 1.68 m/h 103 %
11:00:00 few clouds 19.430 19.430 19.430 49 1.71 m/h 0 %
14:00:00 few clouds 20.160 20.160 20.160 48 2.47 m/h 0 %
17:00:00 light rain 17.860 17.860 17.860 64 1.25 m/h 18 %
20:00:00 light rain 13.720 13.720 13.720 70 2.04 m/h 14 %
23:00:00 clear sky 12.620 12.620 12.620 70 2.7 m/h 0 %
30-Sep-2022 (Fri)
02:00:00 clear sky 11.970 11.970 11.970 69 3.15 m/h 0 %
05:00:00 clear sky 11.610 11.610 11.610 67 3.01 m/h 0 %
08:00:00 clear sky 15.560 15.560 15.560 59 1.08 m/h 0 %
11:00:00 clear sky 19.950 19.950 19.950 49 1.66 m/h 0 %
14:00:00 light rain 20.800 20.800 20.800 46 2.47 m/h 10 %
17:00:00 few clouds 18.110 18.110 18.110 62 1.46 m/h 0 %
20:00:00 clear sky 14.240 14.240 14.240 67 1.83 m/h 0 %
23:00:00 clear sky 13.150 13.150 13.150 69 2.91 m/h 0 %
01-Oct-2022 (Sat)
02:00:00 clear sky 12.340 12.340 12.340 68 3.19 m/h 0 %
05:00:00 clear sky 12.540 12.540 12.540 64 2.59 m/h 0 %

Famous Cities (61)